sensor_id;sensor_type;location;lat;lon;timestamp;pressure;altitude;pressure_sealevel;temperature;humidity
68994;BME280;56054;50.968;5.816;2023-04-22T00:01:48;99976.41;;;9.59;100.00
68994;BME280;56054;50.968;5.816;2023-04-22T00:04:49;99971.94;;;9.56;100.00
68994;BME280;56054;50.968;5.816;2023-04-22T00:07:49;99973.56;;;9.54;100.00
68994;BME280;56054;50.968;5.816;2023-04-22T00:10:50;99983.09;;;9.39;100.00
68994;BME280;56054;50.968;5.816;2023-04-22T00:13:50;99979.06;;;9.44;100.00
68994;BME280;56054;50.968;5.816;2023-04-22T00:16:51;99970.47;;;9.45;100.00
68994;BME280;56054;50.968;5.816;2023-04-22T00:19:51;99970.38;;;9.43;100.00
68994;BME280;56054;50.968;5.816;2023-04-22T00:22:51;99972.63;;;9.37;100.00
68994;BME280;56054;50.968;5.816;2023-04-22T00:25:52;99971.03;;;9.39;100.00
68994;BME280;56054;50.968;5.816;2023-04-22T00:28:52;99972.00;;;9.41;100.00
68994;BME280;56054;50.968;5.816;2023-04-22T00:31:53;99961.63;;;9.41;100.00
68994;BME280;56054;50.968;5.816;2023-04-22T00:35:01;99962.94;;;9.50;100.00
68994;BME280;56054;50.968;5.816;2023-04-22T00:38:01;99960.97;;;9.46;100.00
68994;BME280;56054;50.968;5.816;2023-04-22T00:41:03;99971.09;;;9.41;100.00
68994;BME280;56054;50.968;5.816;2023-04-22T00:44:04;99959.81;;;9.40;100.00
68994;BME280;56054;50.968;5.816;2023-04-22T00:47:05;99957.50;;;9.45;100.00
68994;BME280;56054;50.968;5.816;2023-04-22T00:50:06;99958.94;;;9.40;100.00
68994;BME280;56054;50.968;5.816;2023-04-22T00:53:07;99947.84;;;9.42;100.00
68994;BME280;56054;50.968;5.816;2023-04-22T00:56:07;99950.44;;;9.42;100.00
68994;BME280;56054;50.968;5.816;2023-04-22T00:59:08;99950.84;;;9.50;100.00
68994;BME280;56054;50.968;5.816;2023-04-22T01:02:09;99943.91;;;9.49;100.00
68994;BME280;56054;50.968;5.816;2023-04-22T01:05:10;99937.88;;;9.50;100.00
68994;BME280;56054;50.968;5.816;2023-04-22T01:08:11;99945.81;;;9.53;100.00
68994;BME280;56054;50.968;5.816;2023-04-22T01:11:12;99933.13;;;9.41;100.00
68994;BME280;56054;50.968;5.816;2023-04-22T01:14:34;99945.34;;;9.44;100.00
68994;BME280;56054;50.968;5.816;2023-04-22T01:18:07;99936.19;;;9.51;100.00
68994;BME280;56054;50.968;5.816;2023-04-22T01:21:08;99937.81;;;9.49;100.00
68994;BME280;56054;50.968;5.816;2023-04-22T01:24:08;99940.41;;;9.49;100.00
68994;BME280;56054;50.968;5.816;2023-04-22T01:27:09;99937.09;;;9.51;100.00
68994;BME280;56054;50.968;5.816;2023-04-22T01:30:10;99941.38;;;9.51;100.00
68994;BME280;56054;50.968;5.816;2023-04-22T01:33:14;99939.59;;;9.50;100.00
68994;BME280;56054;50.968;5.816;2023-04-22T01:39:47;99936.59;;;9.42;100.00
68994;BME280;56054;50.968;5.816;2023-04-22T01:42:48;99937.16;;;9.36;100.00
68994;BME280;56054;50.968;5.816;2023-04-22T01:49:29;99937.38;;;9.41;100.00
68994;BME280;56054;50.968;5.816;2023-04-22T01:52:31;99938.03;;;9.37;100.00
68994;BME280;56054;50.968;5.816;2023-04-22T01:55:33;99941.63;;;9.24;100.00
68994;BME280;56054;50.968;5.816;2023-04-22T01:58:33;99933.84;;;9.24;100.00
68994;BME280;56054;50.968;5.816;2023-04-22T02:01:34;99928.03;;;9.28;100.00
68994;BME280;56054;50.968;5.816;2023-04-22T02:04:35;99935.44;;;9.37;100.00
68994;BME280;56054;50.968;5.816;2023-04-22T02:07:36;99939.97;;;9.41;100.00
68994;BME280;56054;50.968;5.816;2023-04-22T02:10:36;99942.50;;;9.39;100.00
68994;BME280;56054;50.968;5.816;2023-04-22T02:13:37;99942.50;;;9.39;100.00
68994;BME280;56054;50.968;5.816;2023-04-22T02:16:42;99935.34;;;9.35;100.00
68994;BME280;56054;50.968;5.816;2023-04-22T02:19:43;99931.16;;;9.37;100.00
68994;BME280;56054;50.968;5.816;2023-04-22T02:22:43;99923.38;;;9.37;100.00
68994;BME280;56054;50.968;5.816;2023-04-22T02:25:50;99927.84;;;9.40;100.00
68994;BME280;56054;50.968;5.816;2023-04-22T02:28:52;99923.63;;;9.42;100.00
68994;BME280;56054;50.968;5.816;2023-04-22T02:31:52;99923.69;;;9.43;100.00
68994;BME280;56054;50.968;5.816;2023-04-22T02:34:55;99921.81;;;9.41;100.00
68994;BME280;56054;50.968;5.816;2023-04-22T02:37:55;99916.56;;;9.39;100.00
68994;BME280;56054;50.968;5.816;2023-04-22T02:41:01;99913.09;;;9.39;100.00
68994;BME280;56054;50.968;5.816;2023-04-22T02:44:01;99919.06;;;9.38;100.00
68994;BME280;56054;50.968;5.816;2023-04-22T02:47:02;99901.75;;;9.37;100.00
68994;BME280;56054;50.968;5.816;2023-04-22T02:50:03;99909.59;;;9.38;100.00
68994;BME280;56054;50.968;5.816;2023-04-22T02:53:04;99909.44;;;9.35;100.00
68994;BME280;56054;50.968;5.816;2023-04-22T02:56:05;99895.72;;;9.38;100.00
68994;BME280;56054;50.968;5.816;2023-04-22T02:59:06;99897.28;;;9.34;100.00
68994;BME280;56054;50.968;5.816;2023-04-22T03:02:09;99894.75;;;9.36;100.00
68994;BME280;56054;50.968;5.816;2023-04-22T03:05:25;99886.91;;;9.34;100.00
68994;BME280;56054;50.968;5.816;2023-04-22T03:08:25;99884.38;;;9.36;100.00
68994;BME280;56054;50.968;5.816;2023-04-22T03:14:42;99875.63;;;9.34;100.00
68994;BME280;56054;50.968;5.816;2023-04-22T03:17:43;99871.91;;;9.29;100.00
68994;BME280;56054;50.968;5.816;2023-04-22T03:20:48;99868.09;;;9.22;100.00
68994;BME280;56054;50.968;5.816;2023-04-22T03:23:49;99862.25;;;9.26;100.00
68994;BME280;56054;50.968;5.816;2023-04-22T03:26:49;99863.88;;;9.24;100.00
68994;BME280;56054;50.968;5.816;2023-04-22T03:29:49;99854.22;;;9.21;100.00
68994;BME280;56054;50.968;5.816;2023-04-22T03:32:50;99861.38;;;9.26;100.00
68994;BME280;56054;50.968;5.816;2023-04-22T03:35:54;99864.94;;;9.28;100.00
68994;BME280;56054;50.968;5.816;2023-04-22T03:38:55;99861.22;;;9.23;100.00
68994;BME280;56054;50.968;5.816;2023-04-22T03:41:58;99863.72;;;9.21;100.00
68994;BME280;56054;50.968;5.816;2023-04-22T03:45:00;99854.06;;;9.18;100.00
68994;BME280;56054;50.968;5.816;2023-04-22T03:48:06;99844.53;;;9.17;100.00
68994;BME280;56054;50.968;5.816;2023-04-22T03:51:13;99839.41;;;9.19;100.00
68994;BME280;56054;50.968;5.816;2023-04-22T03:54:15;99839.41;;;9.19;100.00
68994;BME280;56054;50.968;5.816;2023-04-22T03:57:21;99829.69;;;9.15;100.00
68994;BME280;56054;50.968;5.816;2023-04-22T04:00:22;99823.69;;;9.16;100.00
68994;BME280;56054;50.968;5.816;2023-04-22T04:03:34;99823.69;;;9.16;100.00
68994;BME280;56054;50.968;5.816;2023-04-22T04:06:35;99820.84;;;9.11;100.00
68994;BME280;56054;50.968;5.816;2023-04-22T04:12:39;99823.84;;;9.03;100.00
68994;BME280;56054;50.968;5.816;2023-04-22T04:15:40;99816.34;;;9.07;100.00
68994;BME280;56054;50.968;5.816;2023-04-22T04:18:41;99813.91;;;9.10;100.00
68994;BME280;56054;50.968;5.816;2023-04-22T04:21:43;99802.31;;;9.04;100.00
68994;BME280;56054;50.968;5.816;2023-04-22T04:24:46;99806.69;;;9.05;100.00
68994;BME280;56054;50.968;5.816;2023-04-22T04:28:08;99807.09;;;9.12;100.00
68994;BME280;56054;50.968;5.816;2023-04-22T04:31:16;99805.47;;;9.14;100.00
68994;BME280;56054;50.968;5.816;2023-04-22T04:34:17;99803.59;;;9.12;100.00
68994;BME280;56054;50.968;5.816;2023-04-22T04:37:19;99805.16;;;9.08;100.00
68994;BME280;56054;50.968;5.816;2023-04-22T04:40:38;99807.91;;;9.11;100.00
68994;BME280;56054;50.968;5.816;2023-04-22T04:43:47;99803.78;;;9.15;100.00
68994;BME280;56054;50.968;5.816;2023-04-22T04:46:56;99806.03;;;9.09;100.00
68994;BME280;56054;50.968;5.816;2023-04-22T04:49:57;99802.72;;;9.11;100.00
68994;BME280;56054;50.968;5.816;2023-04-22T04:52:58;99804.41;;;9.11;100.00
68994;BME280;56054;50.968;5.816;2023-04-22T04:56:06;99805.47;;;9.14;100.00
68994;BME280;56054;50.968;5.816;2023-04-22T04:59:08;99794.22;;;9.14;100.00
68994;BME280;56054;50.968;5.816;2023-04-22T05:02:10;99797.78;;;9.16;100.00
68994;BME280;56054;50.968;5.816;2023-04-22T05:05:10;99798.75;;;9.18;100.00
68994;BME280;56054;50.968;5.816;2023-04-22T05:08:15;99797.94;;;9.19;100.00
68994;BME280;56054;50.968;5.816;2023-04-22T05:11:18;99812.53;;;9.17;100.00
68994;BME280;56054;50.968;5.816;2023-04-22T05:14:29;99810.75;;;9.16;100.00
68994;BME280;56054;50.968;5.816;2023-04-22T05:17:30;99825.00;;;9.24;100.00
68994;BME280;56054;50.968;5.816;2023-04-22T05:20:31;99802.22;;;9.18;100.00
68994;BME280;56054;50.968;5.816;2023-04-22T05:27:04;99813.97;;;9.28;100.00
68994;BME280;56054;50.968;5.816;2023-04-22T05:30:06;99808.06;;;9.31;100.00
68994;BME280;56054;50.968;5.816;2023-04-22T05:33:10;99810.59;;;9.29;100.00
68994;BME280;56054;50.968;5.816;2023-04-22T05:36:11;99814.31;;;9.34;100.00
68994;BME280;56054;50.968;5.816;2023-04-22T05:39:12;99825.59;;;9.35;100.00
68994;BME280;56054;50.968;5.816;2023-04-22T05:42:13;99812.72;;;9.36;100.00
68994;BME280;56054;50.968;5.816;2023-04-22T05:45:14;99824.09;;;9.24;100.00
68994;BME280;56054;50.968;5.816;2023-04-22T05:48:15;99820.78;;;9.26;100.00
68994;BME280;56054;50.968;5.816;2023-04-22T05:51:27;99814.78;;;9.43;100.00
68994;BME280;56054;50.968;5.816;2023-04-22T05:54:29;99823.31;;;9.57;100.00
68994;BME280;56054;50.968;5.816;2023-04-22T05:57:30;99823.06;;;9.69;100.00
68994;BME280;56054;50.968;5.816;2023-04-22T06:00:33;99817.22;;;9.73;100.00
68994;BME280;56054;50.968;5.816;2023-04-22T06:03:47;99814.03;;;9.79;100.00
68994;BME280;56054;50.968;5.816;2023-04-22T06:06:47;99814.94;;;9.79;100.00
68994;BME280;56054;50.968;5.816;2023-04-22T06:09:48;99821.72;;;9.94;100.00
68994;BME280;56054;50.968;5.816;2023-04-22T06:12:49;99816.19;;;10.04;100.00
68994;BME280;56054;50.968;5.816;2023-04-22T06:15:49;99802.81;;;9.96;100.00
68994;BME280;56054;50.968;5.816;2023-04-22T06:18:51;99807.22;;;9.97;100.00
68994;BME280;56054;50.968;5.816;2023-04-22T06:21:53;99817.53;;;10.14;100.00
68994;BME280;56054;50.968;5.816;2023-04-22T06:24:54;99820.69;;;10.24;100.00
68994;BME280;56054;50.968;5.816;2023-04-22T06:27:56;99819.56;;;10.19;100.00
68994;BME280;56054;50.968;5.816;2023-04-22T06:30:57;99823.59;;;10.31;100.00
68994;BME280;56054;50.968;5.816;2023-04-22T06:33:58;99826.50;;;10.37;100.00
68994;BME280;56054;50.968;5.816;2023-04-22T06:37:00;99813.81;;;10.43;100.00
68994;BME280;56054;50.968;5.816;2023-04-22T06:40:01;99805.28;;;10.45;100.00
68994;BME280;56054;50.968;5.816;2023-04-22T06:43:21;99804.53;;;10.66;100.00
68994;BME280;56054;50.968;5.816;2023-04-22T06:46:40;99805.22;;;10.62;100.00
68994;BME280;56054;50.968;5.816;2023-04-22T06:50:00;99803.03;;;10.89;100.00
68994;BME280;56054;50.968;5.816;2023-04-22T06:53:09;99805.38;;;11.02;100.00
68994;BME280;56054;50.968;5.816;2023-04-22T06:56:10;99809.47;;;11.17;100.00
68994;BME280;56054;50.968;5.816;2023-04-22T06:59:11;99799.09;;;11.36;100.00
68994;BME280;56054;50.968;5.816;2023-04-22T07:02:11;99806.78;;;11.52;100.00
68994;BME280;56054;50.968;5.816;2023-04-22T07:05:14;99794.44;;;11.68;100.00
68994;BME280;56054;50.968;5.816;2023-04-22T07:08:16;99795.66;;;11.76;100.00
68994;BME280;56054;50.968;5.816;2023-04-22T07:11:16;99785.88;;;11.90;100.00
68994;BME280;56054;50.968;5.816;2023-04-22T07:14:27;99773.44;;;12.04;100.00
68994;BME280;56054;50.968;5.816;2023-04-22T07:17:27;99776.63;;;12.17;100.00
68994;BME280;56054;50.968;5.816;2023-04-22T07:20:28;99786.00;;;12.35;100.00
68994;BME280;56054;50.968;5.816;2023-04-22T07:23:28;99801.38;;;12.50;100.00
68994;BME280;56054;50.968;5.816;2023-04-22T07:26:28;99779.19;;;12.59;100.00
68994;BME280;56054;50.968;5.816;2023-04-22T07:29:29;99790.94;;;12.71;100.00
68994;BME280;56054;50.968;5.816;2023-04-22T07:32:29;99781.47;;;12.97;100.00
68994;BME280;56054;50.968;5.816;2023-04-22T07:35:30;99794.56;;;13.21;100.00
68994;BME280;56054;50.968;5.816;2023-04-22T07:38:30;99786.03;;;13.25;100.00
68994;BME280;56054;50.968;5.816;2023-04-22T07:41:31;99773.97;;;13.27;100.00
68994;BME280;56054;50.968;5.816;2023-04-22T07:44:31;99769.31;;;13.42;100.00
68994;BME280;56054;50.968;5.816;2023-04-22T07:47:34;99770.63;;;13.55;100.00
68994;BME280;56054;50.968;5.816;2023-04-22T07:50:34;99771.50;;;13.56;100.00
68994;BME280;56054;50.968;5.816;2023-04-22T07:53:34;99775.22;;;13.62;100.00
68994;BME280;56054;50.968;5.816;2023-04-22T07:56:35;99767.97;;;13.78;100.00
68994;BME280;56054;50.968;5.816;2023-04-22T07:59:35;99757.09;;;13.91;100.00
68994;BME280;56054;50.968;5.816;2023-04-22T08:02:36;99750.94;;;14.16;100.00
68994;BME280;56054;50.968;5.816;2023-04-22T08:05:36;99756.94;;;14.39;100.00
68994;BME280;56054;50.968;5.816;2023-04-22T08:08:37;99758.22;;;14.52;100.00
68994;BME280;56054;50.968;5.816;2023-04-22T08:11:37;99753.72;;;14.75;100.00
68994;BME280;56054;50.968;5.816;2023-04-22T08:14:38;99750.94;;;14.97;100.00
68994;BME280;56054;50.968;5.816;2023-04-22T08:17:38;99754.91;;;15.15;100.00
68994;BME280;56054;50.968;5.816;2023-04-22T08:21:02;99743.94;;;15.28;100.00
68994;BME280;56054;50.968;5.816;2023-04-22T08:24:14;99756.09;;;15.58;100.00
68994;BME280;56054;50.968;5.816;2023-04-22T08:27:14;99753.09;;;15.74;100.00
68994;BME280;56054;50.968;5.816;2023-04-22T08:30:14;99750.84;;;15.88;97.61
68994;BME280;56054;50.968;5.816;2023-04-22T08:33:16;99752.28;;;16.10;94.19
68994;BME280;56054;50.968;5.816;2023-04-22T08:36:16;99747.56;;;16.32;87.92
68994;BME280;56054;50.968;5.816;2023-04-22T08:39:16;99748.56;;;16.37;86.87
68994;BME280;56054;50.968;5.816;2023-04-22T08:42:18;99753.16;;;16.47;88.59
68994;BME280;56054;50.968;5.816;2023-04-22T08:45:19;99753.78;;;16.75;86.04
68994;BME280;56054;50.968;5.816;2023-04-22T08:48:20;99749.84;;;16.92;87.08
68994;BME280;56054;50.968;5.816;2023-04-22T08:51:21;99744.75;;;16.98;86.23
68994;BME280;56054;50.968;5.816;2023-04-22T08:54:25;99755.69;;;16.79;86.05
68994;BME280;56054;50.968;5.816;2023-04-22T08:57:26;99759.84;;;16.72;84.95
68994;BME280;56054;50.968;5.816;2023-04-22T09:00:26;99755.59;;;16.76;86.47
68994;BME280;56054;50.968;5.816;2023-04-22T09:03:27;99748.44;;;17.08;86.43
68994;BME280;56054;50.968;5.816;2023-04-22T09:06:30;99745.16;;;17.18;82.40
68994;BME280;56054;50.968;5.816;2023-04-22T09:09:34;99753.78;;;17.13;81.08
68994;BME280;56054;50.968;5.816;2023-04-22T09:13:06;99755.56;;;17.14;84.71
68994;BME280;56054;50.968;5.816;2023-04-22T09:23:11;99764.06;;;17.46;82.95
68994;BME280;56054;50.968;5.816;2023-04-22T09:26:12;99753.06;;;17.65;82.49
68994;BME280;56054;50.968;5.816;2023-04-22T09:29:14;99757.88;;;17.86;80.38
68994;BME280;56054;50.968;5.816;2023-04-22T09:32:17;99753.41;;;17.82;79.53
68994;BME280;56054;50.968;5.816;2023-04-22T09:38:30;99753.00;;;18.08;78.31
68994;BME280;56054;50.968;5.816;2023-04-22T09:41:33;99744.47;;;18.23;79.57
68994;BME280;56054;50.968;5.816;2023-04-22T09:44:33;99750.84;;;18.38;80.42
68994;BME280;56054;50.968;5.816;2023-04-22T09:47:35;99757.78;;;18.33;78.48
68994;BME280;56054;50.968;5.816;2023-04-22T09:50:37;99764.91;;;18.40;78.80
68994;BME280;56054;50.968;5.816;2023-04-22T09:53:38;99759.72;;;18.45;77.18
68994;BME280;56054;50.968;5.816;2023-04-22T09:56:52;99753.63;;;18.48;75.29
68994;BME280;56054;50.968;5.816;2023-04-22T09:59:57;99750.47;;;18.69;75.97
68994;BME280;56054;50.968;5.816;2023-04-22T10:02:58;99761.44;;;18.98;73.65
68994;BME280;56054;50.968;5.816;2023-04-22T10:05:58;99759.75;;;19.06;73.53
68994;BME280;56054;50.968;5.816;2023-04-22T10:08:58;99746.31;;;18.83;73.17
68994;BME280;56054;50.968;5.816;2023-04-22T10:11:59;99748.38;;;19.06;75.23
68994;BME280;56054;50.968;5.816;2023-04-22T10:15:00;99748.03;;;18.81;74.28
68994;BME280;56054;50.968;5.816;2023-04-22T10:18:02;99734.75;;;18.73;76.71
68994;BME280;56054;50.968;5.816;2023-04-22T10:21:04;99748.59;;;18.61;73.24
68994;BME280;56054;50.968;5.816;2023-04-22T10:24:05;99730.25;;;18.66;73.31
68994;BME280;56054;50.968;5.816;2023-04-22T10:27:09;99724.47;;;18.92;72.81
68994;BME280;56054;50.968;5.816;2023-04-22T10:30:10;99720.91;;;18.87;72.67
68994;BME280;56054;50.968;5.816;2023-04-22T10:43:20;99731.19;;;18.71;73.37
68994;BME280;56054;50.968;5.816;2023-04-22T10:52:39;99727.81;;;18.80;72.82
68994;BME280;56054;50.968;5.816;2023-04-22T10:55:50;99735.88;;;18.91;72.81
68994;BME280;56054;50.968;5.816;2023-04-22T10:58:51;99734.84;;;18.79;74.58
68994;BME280;56054;50.968;5.816;2023-04-22T11:01:52;99736.28;;;18.59;74.41
68994;BME280;56054;50.968;5.816;2023-04-22T11:05:18;99757.03;;;18.40;74.59
68994;BME280;56054;50.968;5.816;2023-04-22T11:08:20;99753.38;;;18.29;74.91
68994;BME280;56054;50.968;5.816;2023-04-22T11:11:20;99758.66;;;18.32;74.05
68994;BME280;56054;50.968;5.816;2023-04-22T11:14:21;99757.03;;;18.40;74.08
68994;BME280;56054;50.968;5.816;2023-04-22T11:17:21;99762.28;;;18.40;73.99
68994;BME280;56054;50.968;5.816;2023-04-22T11:20:22;99749.97;;;18.36;74.54
68994;BME280;56054;50.968;5.816;2023-04-22T11:23:26;99751.72;;;18.37;75.06
68994;BME280;56054;50.968;5.816;2023-04-22T11:26:34;99752.66;;;18.39;76.47
68994;BME280;56054;50.968;5.816;2023-04-22T11:29:34;99764.78;;;18.31;74.94
68994;BME280;56054;50.968;5.816;2023-04-22T11:36:10;99761.59;;;18.51;77.21
68994;BME280;56054;50.968;5.816;2023-04-22T11:39:11;99763.84;;;18.28;77.18
68994;BME280;56054;50.968;5.816;2023-04-22T11:42:12;99771.56;;;18.17;77.99
68994;BME280;56054;50.968;5.816;2023-04-22T11:45:13;99774.28;;;18.23;78.00
68994;BME280;56054;50.968;5.816;2023-04-22T11:48:13;99772.53;;;18.22;77.40
68994;BME280;56054;50.968;5.816;2023-04-22T11:51:15;99772.44;;;18.19;79.37
68994;BME280;56054;50.968;5.816;2023-04-22T11:54:16;99773.50;;;18.29;78.80
68994;BME280;56054;50.968;5.816;2023-04-22T11:57:19;99768.81;;;18.11;78.91
68994;BME280;56054;50.968;5.816;2023-04-22T12:00:19;99790.69;;;18.08;82.55
68994;BME280;56054;50.968;5.816;2023-04-22T12:03:24;99777.28;;;17.94;85.36
68994;BME280;56054;50.968;5.816;2023-04-22T12:06:29;99784.19;;;17.89;85.82
68994;BME280;56054;50.968;5.816;2023-04-22T12:09:29;99777.97;;;17.83;86.04
68994;BME280;56054;50.968;5.816;2023-04-22T12:12:30;99774.25;;;17.74;82.82
68994;BME280;56054;50.968;5.816;2023-04-22T12:15:41;99764.72;;;17.78;80.03
68994;BME280;56054;50.968;5.816;2023-04-22T12:18:53;99761.47;;;17.91;79.54
68994;BME280;56054;50.968;5.816;2023-04-22T12:21:56;99766.41;;;17.76;78.40
68994;BME280;56054;50.968;5.816;2023-04-22T12:24:57;99754.06;;;17.72;79.05
68994;BME280;56054;50.968;5.816;2023-04-22T12:27:59;99765.66;;;17.82;79.36
68994;BME280;56054;50.968;5.816;2023-04-22T12:30:59;99763.81;;;17.77;79.47
68994;BME280;56054;50.968;5.816;2023-04-22T12:34:00;99775.09;;;17.72;79.82
68994;BME280;56054;50.968;5.816;2023-04-22T12:37:00;99775.72;;;17.60;79.19
68994;BME280;56054;50.968;5.816;2023-04-22T12:40:01;99777.47;;;17.60;80.37
68994;BME280;56054;50.968;5.816;2023-04-22T12:43:03;99780.59;;;17.40;83.22
68994;BME280;56054;50.968;5.816;2023-04-22T12:46:06;99783.75;;;17.24;88.32
68994;BME280;56054;50.968;5.816;2023-04-22T12:49:07;99779.94;;;17.08;92.93
68994;BME280;56054;50.968;5.816;2023-04-22T12:52:09;99787.59;;;16.97;95.03
68994;BME280;56054;50.968;5.816;2023-04-22T12:55:09;99795.31;;;16.91;94.56
68994;BME280;56054;50.968;5.816;2023-04-22T13:05:41;99796.88;;;16.83;93.12
68994;BME280;56054;50.968;5.816;2023-04-22T13:08:41;99796.19;;;16.90;93.81
68994;BME280;56054;50.968;5.816;2023-04-22T13:11:41;99808.22;;;16.82;92.02
68994;BME280;56054;50.968;5.816;2023-04-22T13:14:42;99804.94;;;16.92;92.70
68994;BME280;56054;50.968;5.816;2023-04-22T13:17:42;99808.44;;;16.91;92.28
68994;BME280;56054;50.968;5.816;2023-04-22T13:24:27;99817.06;;;16.87;92.00
68994;BME280;56054;50.968;5.816;2023-04-22T13:27:29;99810.69;;;16.77;91.04
68994;BME280;56054;50.968;5.816;2023-04-22T13:30:29;99814.38;;;16.84;91.63
68994;BME280;56054;50.968;5.816;2023-04-22T13:33:30;99818.56;;;16.77;95.11
68994;BME280;56054;50.968;5.816;2023-04-22T13:36:32;99805.03;;;16.60;97.55
68994;BME280;56054;50.968;5.816;2023-04-22T13:39:32;99802.22;;;16.51;97.17
68994;BME280;56054;50.968;5.816;2023-04-22T13:42:33;99786.41;;;16.48;95.55
68994;BME280;56054;50.968;5.816;2023-04-22T13:45:33;99794.06;;;16.39;97.90
68994;BME280;56054;50.968;5.816;2023-04-22T13:48:34;99804.69;;;16.45;99.27
68994;BME280;56054;50.968;5.816;2023-04-22T13:55:28;99792.31;;;16.39;95.95
68994;BME280;56054;50.968;5.816;2023-04-22T13:58:28;99790.75;;;16.47;95.87
68994;BME280;56054;50.968;5.816;2023-04-22T14:01:28;99800.56;;;16.55;96.49
68994;BME280;56054;50.968;5.816;2023-04-22T14:04:29;99788.31;;;16.55;95.23
68994;BME280;56054;50.968;5.816;2023-04-22T14:07:29;99797.88;;;16.53;95.27
68994;BME280;56054;50.968;5.816;2023-04-22T14:10:31;99791.81;;;16.54;95.01
68994;BME280;56054;50.968;5.816;2023-04-22T14:13:35;99791.56;;;16.45;96.89
68994;BME280;56054;50.968;5.816;2023-04-22T14:16:36;99785.97;;;16.30;100.00
68994;BME280;56054;50.968;5.816;2023-04-22T14:19:37;99785.59;;;16.14;100.00
68994;BME280;56054;50.968;5.816;2023-04-22T14:22:38;99789.72;;;16.06;100.00
68994;BME280;56054;50.968;5.816;2023-04-22T14:25:38;99793.22;;;16.07;100.00
68994;BME280;56054;50.968;5.816;2023-04-22T14:28:39;99787.97;;;16.05;100.00
68994;BME280;56054;50.968;5.816;2023-04-22T14:31:40;99799.28;;;16.04;100.00
68994;BME280;56054;50.968;5.816;2023-04-22T14:34:40;99801.38;;;15.84;100.00
68994;BME280;56054;50.968;5.816;2023-04-22T14:37:40;99802.25;;;15.84;100.00
68994;BME280;56054;50.968;5.816;2023-04-22T14:40:41;99794.19;;;15.75;100.00
68994;BME280;56054;50.968;5.816;2023-04-22T14:43:41;99798.63;;;15.79;100.00
68994;BME280;56054;50.968;5.816;2023-04-22T14:46:42;99798.56;;;15.76;100.00
68994;BME280;56054;50.968;5.816;2023-04-22T14:49:42;99804.75;;;15.80;100.00
68994;BME280;56054;50.968;5.816;2023-04-22T14:52:43;99802.78;;;15.71;100.00
68994;BME280;56054;50.968;5.816;2023-04-22T14:55:43;99803.72;;;15.73;100.00
68994;BME280;56054;50.968;5.816;2023-04-22T14:58:44;99792.19;;;15.68;100.00
68994;BME280;56054;50.968;5.816;2023-04-22T15:01:51;99806.97;;;15.66;100.00
68994;BME280;56054;50.968;5.816;2023-04-22T15:04:52;99805.28;;;15.68;100.00
68994;BME280;56054;50.968;5.816;2023-04-22T15:07:52;99809.63;;;15.68;100.00
68994;BME280;56054;50.968;5.816;2023-04-22T15:10:53;99807.78;;;15.65;100.00
68994;BME280;56054;50.968;5.816;2023-04-22T15:13:59;99809.59;;;15.66;100.00
68994;BME280;56054;50.968;5.816;2023-04-22T15:17:00;99804.94;;;15.56;100.00
68994;BME280;56054;50.968;5.816;2023-04-22T15:20:00;99813.50;;;15.50;100.00
68994;BME280;56054;50.968;5.816;2023-04-22T15:23:01;99824.47;;;15.37;100.00
68994;BME280;56054;50.968;5.816;2023-04-22T15:26:03;99820.63;;;15.26;100.00
68994;BME280;56054;50.968;5.816;2023-04-22T15:29:03;99814.16;;;15.13;100.00
68994;BME280;56054;50.968;5.816;2023-04-22T15:32:04;99822.59;;;15.03;100.00
68994;BME280;56054;50.968;5.816;2023-04-22T15:38:39;99817.91;;;14.92;100.00
68994;BME280;56054;50.968;5.816;2023-04-22T15:41:39;99824.75;;;14.89;100.00
68994;BME280;56054;50.968;5.816;2023-04-22T15:44:40;99825.63;;;14.89;100.00
68994;BME280;56054;50.968;5.816;2023-04-22T15:47:40;99819.44;;;14.86;100.00
68994;BME280;56054;50.968;5.816;2023-04-22T15:50:41;99820.03;;;14.77;100.00
68994;BME280;56054;50.968;5.816;2023-04-22T15:53:41;99809.63;;;14.79;100.00
68994;BME280;56054;50.968;5.816;2023-04-22T15:56:44;99816.63;;;14.80;100.00
68994;BME280;56054;50.968;5.816;2023-04-22T15:59:44;99816.47;;;14.75;100.00
68994;BME280;56054;50.968;5.816;2023-04-22T16:02:45;99814.50;;;14.68;100.00
68994;BME280;56054;50.968;5.816;2023-04-22T16:05:46;99820.81;;;14.74;100.00
68994;BME280;56054;50.968;5.816;2023-04-22T16:08:46;99814.50;;;14.68;100.00
68994;BME280;56054;50.968;5.816;2023-04-22T16:11:46;99814.66;;;14.72;100.00
68994;BME280;56054;50.968;5.816;2023-04-22T16:14:47;99823.94;;;14.63;100.00
68994;BME280;56054;50.968;5.816;2023-04-22T16:17:48;99818.66;;;14.61;100.00
68994;BME280;56054;50.968;5.816;2023-04-22T16:20:48;99824.69;;;14.59;100.00
68994;BME280;56054;50.968;5.816;2023-04-22T16:23:48;99815.09;;;14.59;100.00
68994;BME280;56054;50.968;5.816;2023-04-22T16:26:49;99825.63;;;14.61;100.00
68994;BME280;56054;50.968;5.816;2023-04-22T16:29:49;99815.03;;;14.56;100.00
68994;BME280;56054;50.968;5.816;2023-04-22T16:32:50;99821.22;;;14.60;100.00
68994;BME280;56054;50.968;5.816;2023-04-22T16:35:50;99818.53;;;14.57;100.00
68994;BME280;56054;50.968;5.816;2023-04-22T16:38:51;99819.56;;;14.62;100.00
68994;BME280;56054;50.968;5.816;2023-04-22T16:41:52;99818.34;;;14.52;100.00
68994;BME280;56054;50.968;5.816;2023-04-22T16:44:53;99816.56;;;14.51;100.00
68994;BME280;56054;50.968;5.816;2023-04-22T16:47:54;99811.22;;;14.48;100.00
68994;BME280;56054;50.968;5.816;2023-04-22T16:50:56;99819.03;;;14.46;100.00
68994;BME280;56054;50.968;5.816;2023-04-22T16:53:57;99817.31;;;14.48;100.00
68994;BME280;56054;50.968;5.816;2023-04-22T16:57:04;99822.38;;;14.42;100.00
68994;BME280;56054;50.968;5.816;2023-04-22T17:00:05;99823.22;;;14.41;100.00
68994;BME280;56054;50.968;5.816;2023-04-22T17:03:06;99816.72;;;14.30;100.00
68994;BME280;56054;50.968;5.816;2023-04-22T17:06:06;99823.63;;;14.28;100.00
68994;BME280;56054;50.968;5.816;2023-04-22T17:09:13;99829.53;;;14.22;100.00